sensor_id;sensor_type;location;lat;lon;timestamp;P1;durP1;ratioP1;P2;durP2;ratioP2
61640;SDS011;62201;49.966;8.342;2023-07-22T00:00:39;4.13;;;2.17;;
61640;SDS011;62201;49.966;8.342;2023-07-22T00:03:05;7.35;;;2.50;;
61640;SDS011;62201;49.966;8.342;2023-07-22T00:05:30;4.57;;;2.30;;
61640;SDS011;62201;49.966;8.342;2023-07-22T00:07:55;3.17;;;2.10;;
61640;SDS011;62201;49.966;8.342;2023-07-22T00:10:21;4.13;;;2.38;;
61640;SDS011;62201;49.966;8.342;2023-07-22T00:12:46;4.70;;;2.30;;
61640;SDS011;62201;49.966;8.342;2023-07-22T00:15:12;3.60;;;1.90;;
61640;SDS011;62201;49.966;8.342;2023-07-22T00:17:38;5.00;;;2.13;;
61640;SDS011;62201;49.966;8.342;2023-07-22T00:20:05;5.55;;;1.95;;
61640;SDS011;62201;49.966;8.342;2023-07-22T00:22:31;3.30;;;2.17;;
61640;SDS011;62201;49.966;8.342;2023-07-22T00:24:57;4.85;;;2.42;;
61640;SDS011;62201;49.966;8.342;2023-07-22T00:27:25;4.35;;;2.08;;
61640;SDS011;62201;49.966;8.342;2023-07-22T00:29:50;2.47;;;1.98;;
61640;SDS011;62201;49.966;8.342;2023-07-22T00:32:15;3.22;;;2.13;;
61640;SDS011;62201;49.966;8.342;2023-07-22T00:34:41;3.88;;;2.47;;
61640;SDS011;62201;49.966;8.342;2023-07-22T00:37:06;3.85;;;2.40;;
61640;SDS011;62201;49.966;8.342;2023-07-22T00:39:32;4.90;;;2.35;;
61640;SDS011;62201;49.966;8.342;2023-07-22T00:41:57;4.35;;;2.50;;
61640;SDS011;62201;49.966;8.342;2023-07-22T00:44:22;4.65;;;2.67;;
61640;SDS011;62201;49.966;8.342;2023-07-22T00:46:48;3.65;;;2.28;;
61640;SDS011;62201;49.966;8.342;2023-07-22T00:49:14;5.45;;;2.28;;
61640;SDS011;62201;49.966;8.342;2023-07-22T00:51:39;4.28;;;2.17;;
61640;SDS011;62201;49.966;8.342;2023-07-22T00:54:05;8.32;;;2.70;;
61640;SDS011;62201;49.966;8.342;2023-07-22T00:56:35;6.72;;;2.20;;
61640;SDS011;62201;49.966;8.342;2023-07-22T00:59:01;5.07;;;2.03;;
61640;SDS011;62201;49.966;8.342;2023-07-22T01:01:27;4.40;;;2.47;;
61640;SDS011;62201;49.966;8.342;2023-07-22T01:03:52;3.08;;;2.33;;
61640;SDS011;62201;49.966;8.342;2023-07-22T01:06:18;5.38;;;2.50;;
61640;SDS011;62201;49.966;8.342;2023-07-22T01:08:45;6.18;;;2.25;;
61640;SDS011;62201;49.966;8.342;2023-07-22T01:11:11;4.05;;;2.38;;
61640;SDS011;62201;49.966;8.342;2023-07-22T01:13:37;7.10;;;2.45;;
61640;SDS011;62201;49.966;8.342;2023-07-22T01:16:03;4.38;;;2.28;;
61640;SDS011;62201;49.966;8.342;2023-07-22T01:18:30;7.13;;;2.35;;
61640;SDS011;62201;49.966;8.342;2023-07-22T01:20:56;4.35;;;2.50;;
61640;SDS011;62201;49.966;8.342;2023-07-22T01:23:22;3.55;;;2.58;;
61640;SDS011;62201;49.966;8.342;2023-07-22T01:25:47;4.78;;;2.28;;
61640;SDS011;62201;49.966;8.342;2023-07-22T01:28:13;3.10;;;2.60;;
61640;SDS011;62201;49.966;8.342;2023-07-22T01:30:38;5.88;;;2.28;;
61640;SDS011;62201;49.966;8.342;2023-07-22T01:33:04;5.43;;;2.40;;
61640;SDS011;62201;49.966;8.342;2023-07-22T01:35:30;4.72;;;2.70;;
61640;SDS011;62201;49.966;8.342;2023-07-22T01:37:55;3.00;;;2.40;;
61640;SDS011;62201;49.966;8.342;2023-07-22T01:40:21;5.13;;;2.20;;
61640;SDS011;62201;49.966;8.342;2023-07-22T01:42:48;5.70;;;2.80;;
61640;SDS011;62201;49.966;8.342;2023-07-22T01:45:14;3.05;;;2.45;;
61640;SDS011;62201;49.966;8.342;2023-07-22T01:47:39;5.53;;;2.83;;
61640;SDS011;62201;49.966;8.342;2023-07-22T01:50:07;6.03;;;2.50;;
61640;SDS011;62201;49.966;8.342;2023-07-22T01:52:34;8.15;;;2.60;;
61640;SDS011;62201;49.966;8.342;2023-07-22T01:55:00;7.03;;;2.65;;
61640;SDS011;62201;49.966;8.342;2023-07-22T01:57:26;3.67;;;2.60;;
61640;SDS011;62201;49.966;8.342;2023-07-22T01:59:51;3.80;;;2.90;;
61640;SDS011;62201;49.966;8.342;2023-07-22T02:02:16;4.78;;;2.63;;
61640;SDS011;62201;49.966;8.342;2023-07-22T02:04:42;3.90;;;2.80;;
61640;SDS011;62201;49.966;8.342;2023-07-22T02:07:07;5.45;;;2.60;;
61640;SDS011;62201;49.966;8.342;2023-07-22T02:09:33;4.38;;;2.65;;
61640;SDS011;62201;49.966;8.342;2023-07-22T02:11:59;4.68;;;3.03;;
61640;SDS011;62201;49.966;8.342;2023-07-22T02:14:25;8.07;;;2.90;;
61640;SDS011;62201;49.966;8.342;2023-07-22T02:16:50;3.22;;;2.47;;
61640;SDS011;62201;49.966;8.342;2023-07-22T02:19:15;5.18;;;2.75;;
61640;SDS011;62201;49.966;8.342;2023-07-22T02:21:41;4.40;;;2.58;;
61640;SDS011;62201;49.966;8.342;2023-07-22T02:24:07;5.00;;;2.65;;
61640;SDS011;62201;49.966;8.342;2023-07-22T02:26:32;6.25;;;2.67;;
61640;SDS011;62201;49.966;8.342;2023-07-22T02:28:58;3.95;;;2.55;;
61640;SDS011;62201;49.966;8.342;2023-07-22T02:31:24;4.65;;;2.70;;
61640;SDS011;62201;49.966;8.342;2023-07-22T02:33:50;6.68;;;2.85;;
61640;SDS011;62201;49.966;8.342;2023-07-22T02:36:15;4.78;;;3.20;;
61640;SDS011;62201;49.966;8.342;2023-07-22T02:38:41;5.55;;;2.83;;
61640;SDS011;62201;49.966;8.342;2023-07-22T02:41:06;3.20;;;2.83;;
61640;SDS011;62201;49.966;8.342;2023-07-22T02:43:33;3.90;;;2.97;;
61640;SDS011;62201;49.966;8.342;2023-07-22T02:46:00;8.00;;;3.58;;
61640;SDS011;62201;49.966;8.342;2023-07-22T02:48:27;9.77;;;3.80;;
61640;SDS011;62201;49.966;8.342;2023-07-22T02:50:53;8.57;;;3.25;;
61640;SDS011;62201;49.966;8.342;2023-07-22T02:53:18;5.80;;;3.33;;
61640;SDS011;62201;49.966;8.342;2023-07-22T02:55:44;6.38;;;3.15;;
61640;SDS011;62201;49.966;8.342;2023-07-22T02:58:11;4.90;;;3.20;;
61640;SDS011;62201;49.966;8.342;2023-07-22T03:00:36;3.58;;;3.10;;
61640;SDS011;62201;49.966;8.342;2023-07-22T03:03:02;4.03;;;3.03;;
61640;SDS011;62201;49.966;8.342;2023-07-22T03:05:28;5.63;;;3.28;;
61640;SDS011;62201;49.966;8.342;2023-07-22T03:07:54;3.40;;;2.95;;
61640;SDS011;62201;49.966;8.342;2023-07-22T03:10:19;4.00;;;2.72;;
61640;SDS011;62201;49.966;8.342;2023-07-22T03:12:44;5.55;;;3.38;;
61640;SDS011;62201;49.966;8.342;2023-07-22T03:15:10;4.13;;;3.22;;
61640;SDS011;62201;49.966;8.342;2023-07-22T03:17:37;4.97;;;3.97;;
61640;SDS011;62201;49.966;8.342;2023-07-22T03:20:04;4.88;;;3.47;;
61640;SDS011;62201;49.966;8.342;2023-07-22T03:22:39;7.57;;;3.75;;
61640;SDS011;62201;49.966;8.342;2023-07-22T03:25:06;6.50;;;3.70;;
61640;SDS011;62201;49.966;8.342;2023-07-22T03:27:34;7.63;;;3.50;;
61640;SDS011;62201;49.966;8.342;2023-07-22T03:29:59;6.00;;;4.03;;
61640;SDS011;62201;49.966;8.342;2023-07-22T03:32:26;5.35;;;3.65;;
61640;SDS011;62201;49.966;8.342;2023-07-22T03:34:51;6.97;;;3.47;;
61640;SDS011;62201;49.966;8.342;2023-07-22T03:37:17;4.35;;;3.30;;
61640;SDS011;62201;49.966;8.342;2023-07-22T03:39:42;7.50;;;3.53;;
61640;SDS011;62201;49.966;8.342;2023-07-22T03:42:08;6.93;;;3.35;;
61640;SDS011;62201;49.966;8.342;2023-07-22T03:44:33;6.68;;;3.33;;
61640;SDS011;62201;49.966;8.342;2023-07-22T03:46:59;6.03;;;3.20;;
61640;SDS011;62201;49.966;8.342;2023-07-22T03:49:25;7.15;;;3.58;;
61640;SDS011;62201;49.966;8.342;2023-07-22T03:51:50;3.65;;;3.10;;
61640;SDS011;62201;49.966;8.342;2023-07-22T03:54:15;7.65;;;4.00;;
61640;SDS011;62201;49.966;8.342;2023-07-22T03:56:41;4.43;;;3.55;;
61640;SDS011;62201;49.966;8.342;2023-07-22T03:59:06;8.88;;;5.45;;
61640;SDS011;62201;49.966;8.342;2023-07-22T04:01:32;6.07;;;4.10;;
61640;SDS011;62201;49.966;8.342;2023-07-22T04:03:57;6.68;;;4.30;;
61640;SDS011;62201;49.966;8.342;2023-07-22T04:06:23;10.48;;;4.47;;
61640;SDS011;62201;49.966;8.342;2023-07-22T04:08:48;8.70;;;4.40;;
61640;SDS011;62201;49.966;8.342;2023-07-22T04:11:14;5.07;;;4.30;;
61640;SDS011;62201;49.966;8.342;2023-07-22T04:13:39;6.43;;;3.70;;
61640;SDS011;62201;49.966;8.342;2023-07-22T04:16:05;7.03;;;4.53;;
61640;SDS011;62201;49.966;8.342;2023-07-22T04:18:30;6.97;;;4.35;;
61640;SDS011;62201;49.966;8.342;2023-07-22T04:20:59;10.20;;;4.38;;
61640;SDS011;62201;49.966;8.342;2023-07-22T04:23:25;11.23;;;4.72;;
61640;SDS011;62201;49.966;8.342;2023-07-22T04:25:51;7.28;;;4.75;;
61640;SDS011;62201;49.966;8.342;2023-07-22T04:28:17;14.43;;;5.75;;
61640;SDS011;62201;49.966;8.342;2023-07-22T04:30:42;8.45;;;4.72;;
61640;SDS011;62201;49.966;8.342;2023-07-22T04:33:08;13.60;;;4.47;;
61640;SDS011;62201;49.966;8.342;2023-07-22T04:35:40;10.93;;;5.53;;
61640;SDS011;62201;49.966;8.342;2023-07-22T04:38:06;11.80;;;4.70;;
61640;SDS011;62201;49.966;8.342;2023-07-22T04:40:31;7.88;;;5.30;;
61640;SDS011;62201;49.966;8.342;2023-07-22T04:42:57;9.75;;;5.15;;
61640;SDS011;62201;49.966;8.342;2023-07-22T04:45:22;9.93;;;5.38;;
61640;SDS011;62201;49.966;8.342;2023-07-22T04:47:52;9.20;;;5.30;;
61640;SDS011;62201;49.966;8.342;2023-07-22T04:50:17;8.13;;;5.28;;
61640;SDS011;62201;49.966;8.342;2023-07-22T04:52:44;10.82;;;5.57;;
61640;SDS011;62201;49.966;8.342;2023-07-22T04:55:12;9.43;;;5.40;;
61640;SDS011;62201;49.966;8.342;2023-07-22T04:57:38;10.15;;;5.43;;
61640;SDS011;62201;49.966;8.342;2023-07-22T05:00:06;11.48;;;5.53;;
61640;SDS011;62201;49.966;8.342;2023-07-22T05:02:34;7.78;;;5.13;;
61640;SDS011;62201;49.966;8.342;2023-07-22T05:05:00;9.93;;;5.10;;
61640;SDS011;62201;49.966;8.342;2023-07-22T05:07:25;7.18;;;4.88;;
61640;SDS011;62201;49.966;8.342;2023-07-22T05:09:51;9.13;;;4.50;;
61640;SDS011;62201;49.966;8.342;2023-07-22T05:12:17;7.53;;;4.93;;
61640;SDS011;62201;49.966;8.342;2023-07-22T05:14:42;11.82;;;5.00;;
61640;SDS011;62201;49.966;8.342;2023-07-22T05:17:08;8.27;;;4.72;;
61640;SDS011;62201;49.966;8.342;2023-07-22T05:19:33;6.68;;;5.05;;
61640;SDS011;62201;49.966;8.342;2023-07-22T05:21:58;8.25;;;5.30;;
61640;SDS011;62201;49.966;8.342;2023-07-22T05:24:24;7.65;;;4.88;;
61640;SDS011;62201;49.966;8.342;2023-07-22T05:26:49;10.40;;;4.72;;
61640;SDS011;62201;49.966;8.342;2023-07-22T05:29:14;7.55;;;4.80;;
61640;SDS011;62201;49.966;8.342;2023-07-22T05:31:40;10.20;;;4.72;;
61640;SDS011;62201;49.966;8.342;2023-07-22T05:34:06;6.13;;;4.70;;
61640;SDS011;62201;49.966;8.342;2023-07-22T05:36:31;9.75;;;4.90;;
61640;SDS011;62201;49.966;8.342;2023-07-22T05:38:57;7.82;;;4.63;;
61640;SDS011;62201;49.966;8.342;2023-07-22T05:41:22;5.85;;;4.65;;
61640;SDS011;62201;49.966;8.342;2023-07-22T05:43:48;7.20;;;4.90;;
61640;SDS011;62201;49.966;8.342;2023-07-22T05:46:13;8.35;;;4.30;;
61640;SDS011;62201;49.966;8.342;2023-07-22T05:48:38;10.25;;;4.63;;
61640;SDS011;62201;49.966;8.342;2023-07-22T05:51:04;13.20;;;4.60;;
61640;SDS011;62201;49.966;8.342;2023-07-22T05:53:30;8.45;;;4.72;;
61640;SDS011;62201;49.966;8.342;2023-07-22T05:55:57;7.15;;;4.68;;
61640;SDS011;62201;49.966;8.342;2023-07-22T05:58:23;13.70;;;5.03;;
61640;SDS011;62201;49.966;8.342;2023-07-22T06:00:48;13.57;;;4.97;;
61640;SDS011;62201;49.966;8.342;2023-07-22T06:03:14;6.63;;;4.50;;
61640;SDS011;62201;49.966;8.342;2023-07-22T06:05:39;10.00;;;4.28;;
61640;SDS011;62201;49.966;8.342;2023-07-22T06:08:05;8.27;;;5.00;;
61640;SDS011;62201;49.966;8.342;2023-07-22T06:10:30;7.28;;;4.22;;
61640;SDS011;62201;49.966;8.342;2023-07-22T06:12:56;9.00;;;5.18;;
61640;SDS011;62201;49.966;8.342;2023-07-22T06:15:21;13.38;;;5.32;;
61640;SDS011;62201;49.966;8.342;2023-07-22T06:17:47;8.60;;;4.80;;
61640;SDS011;62201;49.966;8.342;2023-07-22T06:20:12;13.30;;;5.40;;
61640;SDS011;62201;49.966;8.342;2023-07-22T06:22:38;10.98;;;4.45;;
61640;SDS011;62201;49.966;8.342;2023-07-22T06:25:03;13.07;;;5.25;;
61640;SDS011;62201;49.966;8.342;2023-07-22T06:27:30;13.45;;;4.72;;
61640;SDS011;62201;49.966;8.342;2023-07-22T06:29:55;10.77;;;4.85;;
61640;SDS011;62201;49.966;8.342;2023-07-22T06:32:21;12.20;;;5.05;;
61640;SDS011;62201;49.966;8.342;2023-07-22T06:34:46;10.25;;;4.95;;
61640;SDS011;62201;49.966;8.342;2023-07-22T06:37:12;10.95;;;4.95;;
61640;SDS011;62201;49.966;8.342;2023-07-22T06:39:37;11.55;;;4.43;;
61640;SDS011;62201;49.966;8.342;2023-07-22T06:42:03;9.13;;;4.93;;
61640;SDS011;62201;49.966;8.342;2023-07-22T06:44:29;11.10;;;4.05;;
61640;SDS011;62201;49.966;8.342;2023-07-22T06:46:55;13.40;;;4.72;;
61640;SDS011;62201;49.966;8.342;2023-07-22T06:49:20;12.13;;;4.55;;
61640;SDS011;62201;49.966;8.342;2023-07-22T06:51:46;10.18;;;4.70;;
61640;SDS011;62201;49.966;8.342;2023-07-22T06:54:11;12.02;;;4.72;;
61640;SDS011;62201;49.966;8.342;2023-07-22T06:56:36;7.28;;;4.32;;
61640;SDS011;62201;49.966;8.342;2023-07-22T06:59:02;12.02;;;4.55;;
61640;SDS011;62201;49.966;8.342;2023-07-22T07:01:27;9.20;;;4.25;;
61640;SDS011;62201;49.966;8.342;2023-07-22T07:03:53;10.57;;;4.28;;
61640;SDS011;62201;49.966;8.342;2023-07-22T07:06:18;6.88;;;3.58;;
61640;SDS011;62201;49.966;8.342;2023-07-22T07:08:43;8.88;;;3.80;;
61640;SDS011;62201;49.966;8.342;2023-07-22T07:11:09;4.85;;;3.50;;
61640;SDS011;62201;49.966;8.342;2023-07-22T07:13:34;6.20;;;3.92;;
61640;SDS011;62201;49.966;8.342;2023-07-22T07:16:19;7.38;;;4.10;;
61640;SDS011;62201;49.966;8.342;2023-07-22T07:18:46;7.50;;;3.65;;
61640;SDS011;62201;49.966;8.342;2023-07-22T07:21:11;8.02;;;3.58;;
61640;SDS011;62201;49.966;8.342;2023-07-22T07:23:37;7.15;;;3.97;;
61640;SDS011;62201;49.966;8.342;2023-07-22T07:26:02;7.68;;;3.78;;
61640;SDS011;62201;49.966;8.342;2023-07-22T07:28:27;4.88;;;3.47;;
61640;SDS011;62201;49.966;8.342;2023-07-22T07:30:53;5.10;;;3.78;;
61640;SDS011;62201;49.966;8.342;2023-07-22T07:33:18;6.30;;;3.80;;
61640;SDS011;62201;49.966;8.342;2023-07-22T07:35:46;6.03;;;4.10;;
61640;SDS011;62201;49.966;8.342;2023-07-22T07:38:12;5.10;;;3.70;;
61640;SDS011;62201;49.966;8.342;2023-07-22T07:40:37;5.40;;;3.60;;
61640;SDS011;62201;49.966;8.342;2023-07-22T07:43:03;4.95;;;3.67;;
61640;SDS011;62201;49.966;8.342;2023-07-22T07:45:28;11.55;;;3.47;;
61640;SDS011;62201;49.966;8.342;2023-07-22T07:47:54;5.72;;;3.90;;
61640;SDS011;62201;49.966;8.342;2023-07-22T07:50:19;5.70;;;3.67;;
61640;SDS011;62201;49.966;8.342;2023-07-22T07:52:45;7.90;;;3.53;;
61640;SDS011;62201;49.966;8.342;2023-07-22T07:55:10;7.68;;;3.55;;
61640;SDS011;62201;49.966;8.342;2023-07-22T07:57:36;5.47;;;3.67;;
61640;SDS011;62201;49.966;8.342;2023-07-22T08:00:02;6.13;;;3.47;;
61640;SDS011;62201;49.966;8.342;2023-07-22T08:02:28;7.72;;;3.92;;
61640;SDS011;62201;49.966;8.342;2023-07-22T08:04:53;4.95;;;3.30;;
61640;SDS011;62201;49.966;8.342;2023-07-22T08:07:18;8.07;;;3.63;;
61640;SDS011;62201;49.966;8.342;2023-07-22T08:09:46;6.55;;;3.70;;
61640;SDS011;62201;49.966;8.342;2023-07-22T08:12:14;7.72;;;3.80;;
61640;SDS011;62201;49.966;8.342;2023-07-22T08:14:39;4.97;;;3.45;;
61640;SDS011;62201;49.966;8.342;2023-07-22T08:17:05;5.20;;;3.40;;
61640;SDS011;62201;49.966;8.342;2023-07-22T08:19:30;6.10;;;2.90;;
61640;SDS011;62201;49.966;8.342;2023-07-22T08:21:55;5.55;;;3.22;;
61640;SDS011;62201;49.966;8.342;2023-07-22T08:24:21;5.78;;;3.22;;
61640;SDS011;62201;49.966;8.342;2023-07-22T08:26:46;7.45;;;2.83;;
61640;SDS011;62201;49.966;8.342;2023-07-22T08:29:12;5.85;;;2.58;;
61640;SDS011;62201;49.966;8.342;2023-07-22T08:31:37;3.40;;;2.88;;
61640;SDS011;62201;49.966;8.342;2023-07-22T08:34:03;5.10;;;2.85;;
61640;SDS011;62201;49.966;8.342;2023-07-22T08:36:29;10.13;;;3.00;;
61640;SDS011;62201;49.966;8.342;2023-07-22T08:38:54;3.25;;;2.63;;
61640;SDS011;62201;49.966;8.342;2023-07-22T08:41:19;8.88;;;2.95;;
61640;SDS011;62201;49.966;8.342;2023-07-22T08:43:47;6.50;;;2.92;;
61640;SDS011;62201;49.966;8.342;2023-07-22T08:46:15;5.40;;;2.90;;
61640;SDS011;62201;49.966;8.342;2023-07-22T08:48:46;6.53;;;3.20;;
61640;SDS011;62201;49.966;8.342;2023-07-22T08:51:15;4.07;;;2.88;;
61640;SDS011;62201;49.966;8.342;2023-07-22T08:53:41;6.60;;;2.90;;
61640;SDS011;62201;49.966;8.342;2023-07-22T08:56:11;5.22;;;2.70;;
61640;SDS011;62201;49.966;8.342;2023-07-22T08:58:37;4.63;;;2.63;;
61640;SDS011;62201;49.966;8.342;2023-07-22T09:01:03;6.10;;;2.97;;
61640;SDS011;62201;49.966;8.342;2023-07-22T09:03:30;6.07;;;2.78;;
61640;SDS011;62201;49.966;8.342;2023-07-22T09:05:56;4.32;;;2.60;;
61640;SDS011;62201;49.966;8.342;2023-07-22T09:08:21;4.18;;;2.50;;
61640;SDS011;62201;49.966;8.342;2023-07-22T09:10:47;8.25;;;2.85;;
61640;SDS011;62201;49.966;8.342;2023-07-22T09:13:13;3.33;;;2.72;;
61640;SDS011;62201;49.966;8.342;2023-07-22T09:15:39;6.53;;;2.38;;
61640;SDS011;62201;49.966;8.342;2023-07-22T09:18:05;5.63;;;2.80;;
61640;SDS011;62201;49.966;8.342;2023-07-22T09:20:31;4.60;;;2.53;;
61640;SDS011;62201;49.966;8.342;2023-07-22T09:22:56;8.32;;;3.08;;
61640;SDS011;62201;49.966;8.342;2023-07-22T09:25:24;6.10;;;2.80;;
61640;SDS011;62201;49.966;8.342;2023-07-22T09:27:51;9.00;;;2.55;;
61640;SDS011;62201;49.966;8.342;2023-07-22T09:30:22;3.95;;;2.40;;
61640;SDS011;62201;49.966;8.342;2023-07-22T09:32:52;7.13;;;2.80;;
61640;SDS011;62201;49.966;8.342;2023-07-22T09:35:20;5.28;;;2.70;;
61640;SDS011;62201;49.966;8.342;2023-07-22T09:37:47;10.20;;;2.90;;
61640;SDS011;62201;49.966;8.342;2023-07-22T09:40:19;4.95;;;2.50;;
61640;SDS011;62201;49.966;8.342;2023-07-22T09:42:46;7.80;;;2.85;;
61640;SDS011;62201;49.966;8.342;2023-07-22T09:45:17;5.25;;;2.53;;
61640;SDS011;62201;49.966;8.342;2023-07-22T09:47:44;6.30;;;2.40;;
61640;SDS011;62201;49.966;8.342;2023-07-22T09:50:22;4.95;;;2.53;;
61640;SDS011;62201;49.966;8.342;2023-07-22T09:52:50;4.60;;;2.78;;
61640;SDS011;62201;49.966;8.342;2023-07-22T09:55:18;8.48;;;2.70;;
61640;SDS011;62201;49.966;8.342;2023-07-22T09:57:46;3.22;;;2.45;;
61640;SDS011;62201;49.966;8.342;2023-07-22T10:00:15;4.18;;;2.75;;
61640;SDS011;62201;49.966;8.342;2023-07-22T10:02:42;8.63;;;2.60;;
61640;SDS011;62201;49.966;8.342;2023-07-22T10:05:13;7.68;;;2.60;;
61640;SDS011;62201;49.966;8.342;2023-07-22T10:07:46;5.75;;;2.70;;
61640;SDS011;62201;49.966;8.342;2023-07-22T10:10:21;2.75;;;2.08;;
61640;SDS011;62201;49.966;8.342;2023-07-22T10:12:49;4.35;;;2.15;;
61640;SDS011;62201;49.966;8.342;2023-07-22T10:15:14;4.28;;;2.63;;
61640;SDS011;62201;49.966;8.342;2023-07-22T10:17:42;9.23;;;2.67;;
61640;SDS011;62201;49.966;8.342;2023-07-22T10:20:09;4.85;;;2.60;;
61640;SDS011;62201;49.966;8.342;2023-07-22T10:22:40;3.40;;;2.50;;
61640;SDS011;62201;49.966;8.342;2023-07-22T10:25:10;4.53;;;2.45;;
61640;SDS011;62201;49.966;8.342;2023-07-22T10:27:46;12.00;;;3.28;;
61640;SDS011;62201;49.966;8.342;2023-07-22T10:30:15;7.40;;;3.08;;
61640;SDS011;62201;49.966;8.342;2023-07-22T10:32:48;4.20;;;2.58;;
61640;SDS011;62201;49.966;8.342;2023-07-22T10:35:17;6.78;;;2.95;;
61640;SDS011;62201;49.966;8.342;2023-07-22T10:37:49;9.45;;;2.60;;
61640;SDS011;62201;49.966;8.342;2023-07-22T10:40:27;5.43;;;2.58;;
61640;SDS011;62201;49.966;8.342;2023-07-22T10:42:55;4.22;;;2.40;;
61640;SDS011;62201;49.966;8.342;2023-07-22T10:45:29;5.22;;;2.67;;
61640;SDS011;62201;49.966;8.342;2023-07-22T10:48:00;6.25;;;2.45;;
61640;SDS011;62201;49.966;8.342;2023-07-22T10:50:40;4.20;;;2.38;;
61640;SDS011;62201;49.966;8.342;2023-07-22T10:53:14;8.38;;;3.03;;
61640;SDS011;62201;49.966;8.342;2023-07-22T11:06:41;4.47;;;2.90;;
61640;SDS011;62201;49.966;8.342;2023-07-22T11:11:54;5.55;;;2.63;;
61640;SDS011;62201;49.966;8.342;2023-07-22T11:14:22;7.70;;;2.85;;
61640;SDS011;62201;49.966;8.342;2023-07-22T11:16:48;5.40;;;2.28;;
61640;SDS011;62201;49.966;8.342;2023-07-22T11:19:14;8.23;;;2.60;;
61640;SDS011;62201;49.966;8.342;2023-07-22T11:21:41;5.93;;;2.80;;
61640;SDS011;62201;49.966;8.342;2023-07-22T11:24:07;4.53;;;2.72;;
61640;SDS011;62201;49.966;8.342;2023-07-22T11:26:33;3.78;;;2.25;;
61640;SDS011;62201;49.966;8.342;2023-07-22T11:29:02;4.68;;;2.60;;
61640;SDS011;62201;49.966;8.342;2023-07-22T11:31:32;4.75;;;2.42;;
61640;SDS011;62201;49.966;8.342;2023-07-22T11:33:58;5.50;;;2.47;;
61640;SDS011;62201;49.966;8.342;2023-07-22T11:36:24;6.63;;;2.80;;
61640;SDS011;62201;49.966;8.342;2023-07-22T11:38:51;5.68;;;2.40;;
61640;SDS011;62201;49.966;8.342;2023-07-22T11:41:17;10.82;;;2.60;;
61640;SDS011;62201;49.966;8.342;2023-07-22T11:43:43;7.20;;;2.60;;
61640;SDS011;62201;49.966;8.342;2023-07-22T11:46:08;7.32;;;2.25;;
61640;SDS011;62201;49.966;8.342;2023-07-22T11:48:34;5.82;;;2.50;;
61640;SDS011;62201;49.966;8.342;2023-07-22T11:50:59;4.30;;;2.58;;
61640;SDS011;62201;49.966;8.342;2023-07-22T11:53:28;8.32;;;2.90;;
61640;SDS011;62201;49.966;8.342;2023-07-22T11:55:55;3.97;;;2.50;;
61640;SDS011;62201;49.966;8.342;2023-07-22T11:58:24;4.30;;;2.60;;
61640;SDS011;62201;49.966;8.342;2023-07-22T12:01:02;9.38;;;2.53;;
61640;SDS011;62201;49.966;8.342;2023-07-22T12:03:32;8.00;;;2.58;;
61640;SDS011;62201;49.966;8.342;2023-07-22T12:06:02;4.40;;;2.30;;
61640;SDS011;62201;49.966;8.342;2023-07-22T12:08:28;4.20;;;2.72;;
61640;SDS011;62201;49.966;8.342;2023-07-22T12:11:00;8.75;;;2.45;;
61640;SDS011;62201;49.966;8.342;2023-07-22T12:13:25;2.95;;;2.60;;
61640;SDS011;62201;49.966;8.342;2023-07-22T12:16:04;7.28;;;2.60;;
61640;SDS011;62201;49.966;8.342;2023-07-22T12:21:08;5.35;;;2.63;;
61640;SDS011;62201;49.966;8.342;2023-07-22T12:23:34;4.53;;;2.60;;
61640;SDS011;62201;49.966;8.342;2023-07-22T12:26:01;4.72;;;2.70;;
61640;SDS011;62201;49.966;8.342;2023-07-22T12:28:26;5.72;;;2.70;;
61640;SDS011;62201;49.966;8.342;2023-07-22T12:30:52;4.30;;;2.30;;
61640;SDS011;62201;49.966;8.342;2023-07-22T12:33:17;7.90;;;2.50;;
61640;SDS011;62201;49.966;8.342;2023-07-22T12:35:42;5.10;;;2.63;;
61640;SDS011;62201;49.966;8.342;2023-07-22T12:38:08;5.13;;;2.70;;
61640;SDS011;62201;49.966;8.342;2023-07-22T12:40:33;3.88;;;2.30;;
61640;SDS011;62201;49.966;8.342;2023-07-22T12:42:58;2.53;;;2.30;;
61640;SDS011;62201;49.966;8.342;2023-07-22T12:45:24;11.77;;;3.40;;
61640;SDS011;62201;49.966;8.342;2023-07-22T12:47:49;2.42;;;2.22;;
61640;SDS011;62201;49.966;8.342;2023-07-22T12:50:14;5.45;;;2.42;;
61640;SDS011;62201;49.966;8.342;2023-07-22T12:52:40;5.20;;;2.83;;
61640;SDS011;62201;49.966;8.342;2023-07-22T12:55:05;4.00;;;2.72;;
61640;SDS011;62201;49.966;8.342;2023-07-22T12:57:31;6.13;;;2.63;;
61640;SDS011;62201;49.966;8.342;2023-07-22T12:59:57;4.03;;;2.67;;
61640;SDS011;62201;49.966;8.342;2023-07-22T13:02:22;7.47;;;2.83;;
61640;SDS011;62201;49.966;8.342;2023-07-22T13:04:48;6.03;;;2.67;;
61640;SDS011;62201;49.966;8.342;2023-07-22T13:07:13;6.15;;;2.55;;
61640;SDS011;62201;49.966;8.342;2023-07-22T13:09:39;2.97;;;2.53;;
61640;SDS011;62201;49.966;8.342;2023-07-22T13:12:05;6.00;;;2.70;;
61640;SDS011;62201;49.966;8.342;2023-07-22T13:14:30;6.80;;;2.85;;
61640;SDS011;62201;49.966;8.342;2023-07-22T13:16:56;7.28;;;3.15;;
61640;SDS011;62201;49.966;8.342;2023-07-22T13:19:21;6.88;;;2.50;;
61640;SDS011;62201;49.966;8.342;2023-07-22T13:21:47;5.38;;;2.78;;
61640;SDS011;62201;49.966;8.342;2023-07-22T13:24:12;3.70;;;2.58;;
61640;SDS011;62201;49.966;8.342;2023-07-22T13:26:37;5.68;;;2.80;;
61640;SDS011;62201;49.966;8.342;2023-07-22T13:29:03;5.15;;;2.60;;
61640;SDS011;62201;49.966;8.342;2023-07-22T13:31:28;4.10;;;2.70;;
61640;SDS011;62201;49.966;8.342;2023-07-22T13:33:54;4.68;;;2.60;;
61640;SDS011;62201;49.966;8.342;2023-07-22T13:36:19;8.82;;;2.72;;
61640;SDS011;62201;49.966;8.342;2023-07-22T13:38:44;4.85;;;2.50;;
61640;SDS011;62201;49.966;8.342;2023-07-22T13:41:10;6.63;;;3.00;;
61640;SDS011;62201;49.966;8.342;2023-07-22T13:43:35;3.92;;;2.45;;
61640;SDS011;62201;49.966;8.342;2023-07-22T13:46:00;4.40;;;2.90;;
61640;SDS011;62201;49.966;8.342;2023-07-22T13:48:26;8.13;;;2.55;;
61640;SDS011;62201;49.966;8.342;2023-07-22T13:50:52;3.75;;;2.75;;
61640;SDS011;62201;49.966;8.342;2023-07-22T13:53:18;8.32;;;2.70;;
61640;SDS011;62201;49.966;8.342;2023-07-22T13:55:43;4.57;;;2.92;;
61640;SDS011;62201;49.966;8.342;2023-07-22T13:58:08;4.57;;;2.72;;
61640;SDS011;62201;49.966;8.342;2023-07-22T14:00:34;5.82;;;2.58;;
61640;SDS011;62201;49.966;8.342;2023-07-22T14:02:59;5.25;;;2.60;;
61640;SDS011;62201;49.966;8.342;2023-07-22T14:05:25;4.57;;;2.50;;
61640;SDS011;62201;49.966;8.342;2023-07-22T14:07:50;8.68;;;2.50;;
61640;SDS011;62201;49.966;8.342;2023-07-22T14:10:15;5.18;;;2.63;;
61640;SDS011;62201;49.966;8.342;2023-07-22T14:12:41;4.53;;;2.70;;
61640;SDS011;62201;49.966;8.342;2023-07-22T14:15:06;4.43;;;2.70;;
61640;SDS011;62201;49.966;8.342;2023-07-22T14:17:32;3.92;;;2.40;;
61640;SDS011;62201;49.966;8.342;2023-07-22T14:19:58;2.78;;;2.28;;
61640;SDS011;62201;49.966;8.342;2023-07-22T14:22:24;4.97;;;2.50;;
61640;SDS011;62201;49.966;8.342;2023-07-22T14:24:49;5.25;;;2.70;;
61640;SDS011;62201;49.966;8.342;2023-07-22T14:27:14;5.90;;;2.58;;
61640;SDS011;62201;49.966;8.342;2023-07-22T14:29:40;7.30;;;2.40;;
61640;SDS011;62201;49.966;8.342;2023-07-22T14:32:05;4.90;;;2.20;;
61640;SDS011;62201;49.966;8.342;2023-07-22T14:34:31;2.92;;;2.60;;
61640;SDS011;62201;49.966;8.342;2023-07-22T14:36:56;4.97;;;2.40;;
61640;SDS011;62201;49.966;8.342;2023-07-22T14:39:22;5.30;;;2.55;;
61640;SDS011;62201;49.966;8.342;2023-07-22T14:41:47;5.03;;;2.40;;
61640;SDS011;62201;49.966;8.342;2023-07-22T14:44:12;4.32;;;2.63;;
61640;SDS011;62201;49.966;8.342;2023-07-22T14:46:38;5.97;;;2.58;;
61640;SDS011;62201;49.966;8.342;2023-07-22T14:49:04;4.28;;;2.50;;
61640;SDS011;62201;49.966;8.342;2023-07-22T14:51:29;7.63;;;2.55;;
61640;SDS011;62201;49.966;8.342;2023-07-22T14:53:55;7.00;;;2.70;;
61640;SDS011;62201;49.966;8.342;2023-07-22T14:56:20;6.20;;;2.22;;